Time;durP1;ratioP1;P1;durP2;ratioP2;P2;SDS_P1;SDS_P2;PMS_P1;PMS_P2;Temp;Humidity;BMP_temperature;BMP_pressure;BME280_temperature;BME280_humidity;BME280_pressure;Samples;Min_cycle;Max_cycle;Signal;HPM_P1;HPM_P2
2021/07/05 00:01:41;;;;;;;5.37;2.10;;;14.80;99.90;;;;;;21016257;28;20142;-77
2021/07/05 00:11:42;;;;;;;9.70;2.53;;;14.70;99.90;;;;;;21017176;28;20407;-78
2021/07/05 00:21:43;;;;;;;5.00;2.93;;;14.80;99.90;;;;;;21015323;28;20039;-78
2021/07/05 00:31:44;;;;;;;5.03;2.00;;;14.80;99.90;;;;;;21015997;28;20030;-77
2021/07/05 00:41:44;;;;;;;9.87;3.97;;;14.60;99.90;;;;;;21023002;28;20067;-77
2021/07/05 00:51:45;;;;;;;5.87;3.07;;;14.20;99.90;;;;;;21014305;28;20094;-75
2021/07/05 01:01:46;;;;;;;8.17;4.03;;;14.20;99.90;;;;;;21002181;28;20060;-77
2021/07/05 01:11:47;;;;;;;7.83;2.80;;;14.20;99.90;;;;;;20999537;28;20119;-76
2021/07/05 01:21:48;;;;;;;3.10;1.60;;;14.10;99.90;;;;;;21000184;28;20025;-77
2021/07/05 01:31:49;;;;;;;2.50;1.43;;;14.20;99.90;;;;;;21099430;22;20496;-79
2021/07/05 01:41:50;;;;;;;4.63;2.50;;;14.20;99.90;;;;;;21079221;28;20484;-81
2021/07/05 01:51:52;;;;;;;5.82;2.95;;;14.30;99.90;;;;;;21080198;28;20076;-82
2021/07/05 02:01:53;;;;;;;3.37;1.93;;;14.20;99.90;;;;;;21095290;28;20043;-80
2021/07/05 02:11:53;;;;;;;7.43;3.20;;;14.00;99.90;;;;;;21099718;28;20266;-82
2021/07/05 02:21:54;;;;;;;11.40;3.17;;;13.80;99.90;;;;;;21064072;28;20038;-82
2021/07/05 02:31:55;;;;;;;10.17;5.93;;;13.80;99.90;;;;;;21071208;28;20032;-82
2021/07/05 02:41:56;;;;;;;17.07;9.80;;;14.00;99.90;;;;;;21070417;28;20036;-79
2021/07/05 02:51:57;;;;;;;23.00;9.53;;;14.10;99.90;;;;;;21088241;28;20049;-79
2021/07/05 03:01:58;;;;;;;16.47;8.73;;;14.20;99.90;;;;;;21068676;28;20032;-78
2021/07/05 03:11:58;;;;;;;15.63;9.13;;;14.20;99.90;;;;;;21066290;28;20036;-79
2021/07/05 03:21:59;;;;;;;15.80;10.30;;;14.20;99.90;;;;;;21064318;28;20032;-81
2021/07/05 03:32:01;;;;;;;47.23;10.97;;;14.30;99.90;;;;;;21083782;28;20040;-80
2021/07/05 03:42:04;;;;;;;20.85;10.95;;;14.20;99.90;;;;;;21082955;28;20044;-80
2021/07/05 03:52:05;;;;;;;18.83;10.82;;;14.10;99.90;;;;;;21066488;28;20059;-80
2021/07/05 04:02:08;;;;;;;15.93;9.07;;;14.10;99.90;;;;;;21062632;28;20032;-79
2021/07/05 04:12:11;;;;;;;16.48;8.00;;;14.20;99.90;;;;;;21079789;28;20036;-78
2021/07/05 04:22:17;;;;;;;16.48;8.68;;;14.20;99.90;;;;;;21060813;28;20128;-79
2021/07/05 04:32:18;;;;;;;17.10;9.07;;;14.40;99.90;;;;;;21079113;28;20400;-79
2021/07/05 04:42:19;;;;;;;17.50;9.13;;;14.30;99.90;;;;;;21093998;28;20059;-81
2021/07/05 04:52:20;;;;;;;13.10;7.47;;;14.40;99.90;;;;;;21105736;28;20119;-80
2021/07/05 05:02:22;;;;;;;13.10;8.43;;;14.60;99.90;;;;;;21109542;28;20110;-79
2021/07/05 05:12:23;;;;;;;15.35;7.20;;;14.60;99.90;;;;;;21159989;28;20032;-79
2021/07/05 05:22:24;;;;;;;16.30;7.87;;;14.80;99.90;;;;;;21162974;28;20070;-82
2021/07/05 05:32:25;;;;;;;17.50;8.00;;;14.90;99.90;;;;;;21094402;28;20081;-79
2021/07/05 05:42:26;;;;;;;12.63;6.97;;;14.80;99.90;;;;;;21078190;28;20028;-81
2021/07/05 05:52:27;;;;;;;9.43;6.27;;;14.90;99.90;;;;;;21093681;28;20024;-79
2021/07/05 06:02:28;;;;;;;11.10;7.40;;;15.00;99.90;;;;;;21095257;28;20021;-79
2021/07/05 06:12:29;;;;;;;22.90;8.98;;;15.20;99.90;;;;;;21086044;28;20064;-78
2021/07/05 06:22:31;;;;;;;14.57;8.90;;;15.30;99.90;;;;;;21067303;28;20073;-80
2021/07/05 06:32:32;;;;;;;;;;;15.30;99.90;;;;;;21094431;28;20040;-79
2021/07/05 06:42:36;;;;;;;11.88;7.85;;;15.50;99.90;;;;;;21074885;28;19916;-82
2021/07/05 06:52:37;;;;;;;12.25;9.05;;;15.60;99.90;;;;;;21073944;28;20032;-79
2021/07/05 07:02:41;;;;;;;13.37;7.70;;;15.60;99.90;;;;;;21070518;28;20102;-82
2021/07/05 07:12:47;;;;;;;8.80;6.45;;;16.20;99.90;;;;;;21069478;28;20042;-80
2021/07/05 07:22:48;;;;;;;13.07;6.22;;;16.40;99.90;;;;;;21052372;28;20028;-80
2021/07/05 07:32:49;;;;;;;7.70;5.30;;;16.50;99.90;;;;;;20990770;22;20141;-76
2021/07/05 07:42:50;;;;;;;7.27;5.30;;;16.70;99.90;;;;;;20974159;28;20398;-76
2021/07/05 07:52:56;;;;;;;8.38;5.53;;;16.80;99.90;;;;;;20991593;28;20024;-77
2021/07/05 08:02:56;;;;;;;10.05;4.78;;;16.90;99.90;;;;;;20991537;28;20108;-76
2021/07/05 08:12:58;;;;;;;7.00;4.87;;;17.50;99.90;;;;;;21006005;28;20067;-76
2021/07/05 08:22:59;;;;;;;9.97;5.37;;;17.40;99.90;;;;;;21005983;28;20108;-76
2021/07/05 08:33:00;;;;;;;6.27;4.30;;;17.20;99.90;;;;;;21005245;28;20090;-76
2021/07/05 08:43:02;;;;;;;6.50;4.77;;;17.50;99.90;;;;;;20992202;28;20086;-76
2021/07/05 08:53:03;;;;;;;7.55;5.30;;;17.50;99.90;;;;;;20986880;28;20499;-76
2021/07/05 09:03:04;;;;;;;12.30;5.30;;;17.20;99.90;;;;;;20993993;28;20087;-78
2021/07/05 09:13:25;;;;;;;12.33;5.00;;;17.30;99.90;;;;;;21011999;28;20035;-76
2021/07/05 09:23:26;;;;;;;13.00;6.55;;;17.90;99.90;;;;;;21008083;28;20036;-77
2021/07/05 09:33:29;;;;;;;10.77;6.30;;;18.30;99.90;;;;;;21007366;28;20058;-77
2021/07/05 09:43:29;;;;;;;8.77;4.75;;;18.60;99.90;;;;;;21009008;28;20510;-77
2021/07/05 09:53:39;;;;;;;13.97;4.43;;;18.60;99.90;;;;;;20989822;28;20025;-76
2021/07/05 10:03:40;;;;;;;7.75;4.68;;;18.60;99.90;;;;;;20987627;28;20064;-77
2021/07/05 10:13:41;;;;;;;6.67;4.70;;;18.50;99.90;;;;;;21000755;28;20041;-77
2021/07/05 10:23:44;;;;;;;5.10;3.80;;;18.70;99.90;;;;;;21002899;28;20050;-76
2021/07/05 10:33:45;;;;;;;6.88;3.58;;;18.70;99.90;;;;;;20999450;28;20052;-76
2021/07/05 10:43:58;;;;;;;4.13;2.87;;;18.90;99.90;;;;;;20997142;28;20487;-76
2021/07/05 10:53:59;;;;;;;8.55;2.92;;;20.00;99.90;;;;;;20975007;28;20359;-76
2021/07/05 11:04:20;;;;;;;5.53;3.20;;;19.50;99.90;;;;;;20992646;28;20040;-76
2021/07/05 11:14:22;;;;;;;7.25;2.88;;;18.30;99.90;;;;;;20992337;28;20044;-76
2021/07/05 11:24:32;;;;;;;5.13;2.55;;;18.10;99.90;;;;;;20991440;28;20031;-76
2021/07/05 11:34:35;;;;;;;2.80;1.52;;;18.20;99.90;;;;;;20991478;28;20040;-76
2021/07/05 11:44:51;;;;;;;2.78;1.02;;;19.10;99.90;;;;;;20990339;28;20509;-76
2021/07/05 11:55:01;;;;;;;1.70;1.08;;;20.20;99.90;;;;;;20972518;28;20045;-76
2021/07/05 12:05:10;;;;;;;2.20;1.50;;;19.70;99.90;;;;;;20971980;28;20052;-75
2021/07/05 12:15:12;;;;;;;1.55;0.98;;;19.30;99.90;;;;;;20992965;28;20056;-76
2021/07/05 12:25:14;;;;;;;3.40;1.43;;;19.90;99.90;;;;;;20989107;28;20032;-76
2021/07/05 12:35:16;;;;;;;2.85;1.55;;;20.30;99.90;;;;;;20988553;28;20081;-76
2021/07/05 12:45:21;;;;;;;1.85;1.20;;;20.90;99.90;;;;;;20988640;28;20090;-76
2021/07/05 12:55:22;;;;;;;3.05;1.30;;;20.30;99.90;;;;;;20977424;28;20040;-76
2021/07/05 13:05:23;;;;;;;;;;;20.20;99.90;;;;;;21002897;28;20445;-76
2021/07/05 13:15:29;;;;;;;1.10;1.00;;;20.60;99.90;;;;;;21001904;28;19961;-76
2021/07/05 13:25:30;;;;;;;2.75;1.30;;;20.80;99.90;;;;;;21001156;28;20295;-76
2021/07/05 13:35:33;;;;;;;1.20;0.83;;;21.30;99.90;;;;;;21000980;28;20398;-75
2021/07/05 13:45:43;;;;;;;4.45;1.05;;;22.20;99.90;;;;;;20999357;28;20186;-76
2021/07/05 13:55:53;;;;;;;2.03;1.30;;;22.60;99.90;;;;;;20999614;28;20033;-75
2021/07/05 14:05:56;;;;;;;3.53;1.20;;;23.50;99.90;;;;;;20999397;28;20033;-76
2021/07/05 14:15:58;;;;;;;3.83;1.20;;;23.10;99.90;;;;;;20997651;28;20044;-77
2021/07/05 14:25:59;;;;;;;1.58;1.00;;;23.30;99.90;;;;;;20963375;28;20032;-77
2021/07/05 14:36:00;;;;;;;1.93;1.20;;;24.30;99.90;;;;;;20979719;28;20044;-76
2021/07/05 14:46:01;;;;;;;1.05;0.75;;;24.80;99.90;;;;;;20977082;28;20340;-76
2021/07/05 14:56:02;;;;;;;;;;;24.80;99.90;;;;;;20961980;28;20499;-76
2021/07/05 15:06:03;;;;;;;4.87;1.20;;;24.50;99.90;;;;;;20977792;28;19990;-76
2021/07/05 15:16:05;;;;;;;3.00;0.98;;;23.80;99.90;;;;;;20955525;28;20278;-76
2021/07/05 15:26:06;;;;;;;5.00;0.70;;;23.70;99.90;;;;;;20958661;28;20039;-77
2021/07/05 15:36:07;;;;;;;0.70;0.70;;;23.40;99.90;;;;;;20977397;28;20140;-77
2021/07/05 15:46:08;;;;;;;;;;;23.90;99.90;;;;;;20979302;28;20096;-76
2021/07/05 15:56:09;;;;;;;5.30;0.85;;;23.70;99.90;;;;;;20960169;28;19966;-76
2021/07/05 16:06:10;;;;;;;1.80;0.93;;;23.80;99.90;;;;;;20957907;28;20060;-77
2021/07/05 16:16:11;;;;;;;1.33;0.80;;;23.50;99.90;;;;;;20973448;28;20062;-77
2021/07/05 16:26:12;;;;;;;1.58;0.70;;;23.70;99.90;;;;;;20958467;28;20068;-76
2021/07/05 16:36:13;;;;;;;2.03;1.00;;;23.90;99.90;;;;;;20957126;28;20060;-78
2021/07/05 16:46:14;;;;;;;5.60;1.20;;;24.00;99.90;;;;;;20985800;28;20784;-77
2021/07/05 16:56:17;;;;;;;1.23;0.90;;;23.00;99.90;;;;;;20970877;28;20037;-76
2021/07/05 17:06:18;;;;;;;2.20;0.90;;;22.60;99.90;;;;;;20985637;28;20395;-76
2021/07/05 17:16:22;;;;;;;1.43;1.03;;;22.30;99.90;;;;;;20950550;28;20043;-77
2021/07/05 17:26:23;;;;;;;8.13;1.20;;;22.20;99.90;;;;;;20986772;28;20044;-76
2021/07/05 17:36:24;;;;;;;2.93;1.57;;;22.10;99.90;;;;;;20985343;28;20059;-77
2021/07/05 17:46:25;;;;;;;8.00;1.40;;;21.80;99.90;;;;;;20978645;28;20044;-77
2021/07/05 17:56:26;;;;;;;;;;;21.80;99.90;;;;;;20981727;28;20044;-76
2021/07/05 18:06:26;;;;;;;2.63;1.33;;;21.60;99.90;;;;;;20984110;28;19916;-76
2021/07/05 18:16:27;;;;;;;6.20;1.50;;;22.30;99.90;;;;;;20979017;28;20746;-77
2021/07/05 18:26:28;;;;;;;3.60;1.13;;;23.50;99.90;;;;;;20953742;28;20485;-78
2021/07/05 18:36:29;;;;;;;4.63;1.50;;;24.30;99.90;;;;;;20981573;28;20028;-76
2021/07/05 18:46:30;;;;;;;1.43;1.20;;;22.00;99.90;;;;;;20962666;28;20294;-76
2021/07/05 18:56:31;;;;;;;2.65;1.52;;;21.30;99.90;;;;;;20976697;28;20509;-75
2021/07/05 19:06:33;;;;;;;5.87;1.60;;;20.10;99.90;;;;;;20946829;28;20029;-75
2021/07/05 19:16:34;;;;;;;2.40;1.40;;;19.60;99.90;;;;;;20962629;28;20131;-75
2021/07/05 19:26:35;;;;;;;3.00;1.63;;;19.40;99.90;;;;;;20961536;28;20523;-75
2021/07/05 19:36:36;;;;;;;4.75;1.52;;;18.50;99.90;;;;;;20959068;28;20033;-75
2021/07/05 19:46:38;;;;;;;4.73;1.43;;;18.70;99.90;;;;;;20958850;28;20044;-76
2021/07/05 19:56:39;;;;;;;2.65;1.42;;;18.90;99.90;;;;;;20979574;28;20064;-75
2021/07/05 20:06:40;;;;;;;3.53;1.70;;;18.60;99.90;;;;;;20970355;28;20375;-77
2021/07/05 20:16:41;;;;;;;5.00;1.60;;;18.50;99.90;;;;;;20976006;28;20052;-76
2021/07/05 20:26:42;;;;;;;2.93;1.53;;;18.30;99.90;;;;;;20970899;28;20808;-77
2021/07/05 20:36:43;;;;;;;6.67;1.73;;;18.10;99.90;;;;;;20985377;28;20053;-75
2021/07/05 20:46:44;;;;;;;4.23;2.13;;;18.00;99.90;;;;;;20975290;28;20116;-76
2021/07/05 20:56:45;;;;;;;5.50;1.87;;;17.90;99.90;;;;;;20994449;28;20043;-77
2021/07/05 21:06:46;;;;;;;3.00;1.80;;;17.70;99.90;;;;;;20981652;28;20047;-76
2021/07/05 21:16:47;;;;;;;4.23;1.93;;;17.60;99.90;;;;;;20967269;28;20067;-76
2021/07/05 21:26:48;;;;;;;4.03;1.70;;;17.60;99.90;;;;;;20996363;28;20025;-76
2021/07/05 21:36:48;;;;;;;7.27;1.57;;;17.50;99.90;;;;;;20998594;28;20024;-76
2021/07/05 21:46:49;;;;;;;3.50;1.83;;;17.30;99.90;;;;;;20995688;28;20020;-77
2021/07/05 21:56:50;;;;;;;3.70;2.00;;;17.20;99.90;;;;;;20996315;28;20060;-76
2021/07/05 22:06:51;;;;;;;3.80;2.40;;;17.00;99.90;;;;;;20997261;28;20061;-77
2021/07/05 22:16:52;;;;;;;3.30;1.97;;;16.90;99.90;;;;;;20996299;28;20108;-77
2021/07/05 22:26:53;;;;;;;5.87;2.10;;;17.00;99.90;;;;;;20995132;28;20521;-76
2021/07/05 22:36:54;;;;;;;5.30;2.07;;;17.10;99.90;;;;;;20994896;28;20082;-77
2021/07/05 22:46:55;;;;;;;5.30;2.43;;;17.00;99.90;;;;;;21004550;28;20040;-77
2021/07/05 22:56:56;;;;;;;5.47;2.13;;;16.90;99.90;;;;;;20993280;28;20032;-77
2021/07/05 23:06:56;;;;;;;6.23;2.30;;;16.80;99.90;;;;;;20992482;28;20024;-77
2021/07/05 23:16:57;;;;;;;4.50;2.20;;;16.70;99.90;;;;;;20991952;28;20035;-77
2021/07/05 23:26:58;;;;;;;3.60;2.10;;;16.60;99.90;;;;;;20991351;28;20110;-77
2021/07/05 23:36:59;;;;;;;5.63;2.40;;;16.50;99.90;;;;;;20990114;28;20024;-76
2021/07/05 23:47:00;;;;;;;8.23;1.97;;;16.30;99.90;;;;;;20972372;28;20089;-77
2021/07/05 23:57:01;;;;;;;6.23;2.50;;;16.20;99.90;;;;;;20990016;28;20056;-77
